createdAt,value
2022-08-03T00:00:48.840Z,99345.41
2022-08-03T00:01:51.291Z,99326.63
2022-08-03T00:02:53.809Z,99337.16
2022-08-03T00:03:56.623Z,99337.53
2022-08-03T00:04:58.871Z,99334.66
2022-08-03T00:06:04.434Z,99334.66
2022-08-03T00:07:07.550Z,99335.09
2022-08-03T00:08:09.834Z,99337.63
2022-08-03T00:09:12.247Z,99336.28
2022-08-03T00:10:14.514Z,99341.31
2022-08-03T00:11:17.087Z,99336.00
2022-08-03T00:12:19.445Z,99336.09
2022-08-03T00:13:21.781Z,99329.34
2022-08-03T00:14:24.093Z,99330.69
2022-08-03T00:15:26.586Z,99327.53
2022-08-03T00:16:29.060Z,99330.94
2022-08-03T00:17:31.307Z,99321.78
2022-08-03T00:18:53.515Z,99326.13
2022-08-03T00:19:55.937Z,99325.78
2022-08-03T00:20:58.252Z,99323.63
2022-08-03T00:22:00.620Z,99323.25
2022-08-03T00:23:04.083Z,99321.13
2022-08-03T00:24:06.500Z,99322.81
2022-08-03T00:25:08.841Z,99317.91
2022-08-03T00:26:11.148Z,99323.31
2022-08-03T00:27:15.162Z,99328.72
2022-08-03T00:28:19.023Z,99318.84
2022-08-03T00:29:21.487Z,99326.75
2022-08-03T00:30:23.888Z,99322.06
2022-08-03T00:31:51.418Z,99326.13
2022-08-03T00:32:54.263Z,99321.06
2022-08-03T00:33:58.782Z,99320.59
2022-08-03T00:35:08.355Z,99313.47
2022-08-03T00:36:12.764Z,99321.44
2022-08-03T00:37:15.095Z,99318.78
2022-08-03T00:38:20.076Z,99320.53
2022-08-03T00:39:22.364Z,99310.34
2022-08-03T00:40:24.783Z,99322.91
2022-08-03T00:41:27.079Z,99318.28
2022-08-03T00:42:29.309Z,99315.47
2022-08-03T00:43:31.680Z,99322.81
2022-08-03T00:44:40.747Z,99323.53
2022-08-03T00:45:43.811Z,99320.03
2022-08-03T00:46:46.284Z,99326.00
2022-08-03T00:47:48.832Z,99321.16
2022-08-03T00:48:51.719Z,99311.44
2022-08-03T00:49:54.189Z,99311.75
2022-08-03T00:50:56.724Z,99325.38
2022-08-03T00:52:00.839Z,99315.09
2022-08-03T00:53:12.809Z,99316.91
2022-08-03T00:54:16.060Z,99318.75
2022-08-03T00:55:18.649Z,99316.47
2022-08-03T00:56:20.963Z,99317.41
2022-08-03T00:57:23.329Z,99320.69
2022-08-03T00:58:25.759Z,99319.75
2022-08-03T00:59:28.153Z,99326.81
2022-08-03T01:00:30.414Z,99308.47
2022-08-03T01:01:32.895Z,99310.34
2022-08-03T01:02:35.833Z,99312.25
2022-08-03T01:03:38.488Z,99308.09
2022-08-03T01:04:40.896Z,99307.13
2022-08-03T01:05:52.268Z,99305.59
2022-08-03T01:07:03.052Z,99316.63
2022-08-03T01:08:07.975Z,99312.53
2022-08-03T01:09:45.369Z,99305.28
2022-08-03T01:11:10.197Z,99304.78
2022-08-03T01:12:39.648Z,99311.78
2022-08-03T01:14:04.039Z,99300.78
2022-08-03T01:15:25.807Z,99299.25
2022-08-03T01:16:39.084Z,99310.59
2022-08-03T01:17:56.237Z,99307.44
2022-08-03T01:19:13.605Z,99299.81
2022-08-03T01:20:18.420Z,99304.78
2022-08-03T01:21:52.214Z,99303.09
2022-08-03T01:23:21.971Z,99295.00
2022-08-03T01:24:26.955Z,99307.56
2022-08-03T01:25:31.827Z,99300.25
2022-08-03T01:26:52.258Z,99297.09
2022-08-03T01:28:23.442Z,99298.56
2022-08-03T01:29:34.659Z,99297.59
2022-08-03T01:30:41.053Z,99295.59
2022-08-03T01:32:59.860Z,99292.53
2022-08-03T01:33:22.455Z,99293.41
2022-08-03T01:34:31.407Z,99292.13
2022-08-03T01:35:46.287Z,99284.47
2022-08-03T01:36:53.736Z,99281.81
2022-08-03T01:38:07.110Z,99284.47
2022-08-03T01:39:11.431Z,99281.72
2022-08-03T01:40:16.080Z,99281.25
2022-08-03T01:41:22.560Z,99286.66
2022-08-03T01:42:25.954Z,99285.16
2022-08-03T01:44:26.429Z,99274.44
2022-08-03T01:44:55.682Z,99277.28
2022-08-03T01:45:59.204Z,99280.25
2022-08-03T01:47:03.072Z,99266.25
2022-08-03T01:48:06.613Z,99273.97
2022-08-03T01:49:11.522Z,99278.63
2022-08-03T01:50:15.763Z,99268.00
2022-08-03T01:51:22.880Z,99278.22
2022-08-03T01:52:26.332Z,99259.72
2022-08-03T01:53:31.140Z,99274.56
2022-08-03T01:54:46.527Z,99271.91
2022-08-03T01:55:52.572Z,99273.16
2022-08-03T01:56:58.375Z,99268.81
2022-08-03T01:58:06.126Z,99276.34
2022-08-03T01:59:11.689Z,99267.13
2022-08-03T02:00:14.869Z,99274.38
2022-08-03T02:01:22.610Z,99267.47
2022-08-03T02:02:33.262Z,99275.91
2022-08-03T02:04:00.782Z,99271.47
2022-08-03T02:05:10.602Z,99273.94
2022-08-03T02:07:00.696Z,99273.34
2022-08-03T02:07:39.800Z,99274.19
2022-08-03T02:08:44.947Z,99269.41
2022-08-03T02:09:51.412Z,99272.06
2022-08-03T02:10:56.969Z,99280.50
2022-08-03T02:12:00.830Z,99274.19
2022-08-03T02:13:05.960Z,99267.47
2022-08-03T02:14:09.261Z,99278.09
2022-08-03T02:15:15.218Z,99258.13
2022-08-03T02:16:19.001Z,99278.44
2022-08-03T02:17:38.530Z,99274.47
2022-08-03T02:18:42.574Z,99270.13
2022-08-03T02:19:45.965Z,99278.66
2022-08-03T02:20:50.052Z,99281.84
2022-08-03T02:21:56.893Z,99275.78
2022-08-03T02:23:04.014Z,99269.31
2022-08-03T02:24:06.656Z,99280.34
2022-08-03T02:25:11.731Z,99277.38
2022-08-03T02:26:17.322Z,99284.16
2022-08-03T02:27:25.659Z,99279.47
2022-08-03T02:28:38.212Z,99274.84
2022-08-03T02:29:42.636Z,99282.94
2022-08-03T02:30:47.113Z,99279.22
2022-08-03T02:31:59.341Z,99279.97
2022-08-03T02:33:02.935Z,99280.06
2022-08-03T02:34:09.822Z,99284.22
2022-08-03T02:35:15.395Z,99277.94
2022-08-03T02:36:23.455Z,99274.13
2022-08-03T02:37:28.928Z,99286.44
2022-08-03T02:38:36.538Z,99269.88
2022-08-03T02:39:41.892Z,99277.28
2022-08-03T02:40:45.642Z,99278.25
2022-08-03T02:41:52.353Z,99273.13
2022-08-03T02:42:57.964Z,99279.56
2022-08-03T02:44:06.878Z,99279.38
2022-08-03T02:45:13.932Z,99267.66
2022-08-03T02:46:19.695Z,99271.91
2022-08-03T02:47:23.713Z,99281.47
2022-08-03T02:48:30.914Z,99272.22
2022-08-03T02:49:40.863Z,99269.25
2022-08-03T02:50:57.519Z,99279.44
2022-08-03T02:52:04.177Z,99272.97
2022-08-03T02:53:07.871Z,99269.22
2022-08-03T02:54:11.616Z,99267.84
2022-08-03T02:55:15.276Z,99265.88
2022-08-03T02:56:19.350Z,99269.16
2022-08-03T02:57:23.210Z,99278.16
2022-08-03T02:58:26.238Z,99278.00
2022-08-03T02:59:31.244Z,99275.91
2022-08-03T03:00:34.499Z,99279.63
2022-08-03T03:01:39.275Z,99276.00
2022-08-03T03:02:44.619Z,99273.25
2022-08-03T03:03:49.100Z,99273.38
2022-08-03T03:04:55.015Z,99268.25
2022-08-03T03:06:17.779Z,99270.03
2022-08-03T03:07:22.246Z,99276.41
2022-08-03T03:08:28.756Z,99276.75
2022-08-03T03:09:41.588Z,99264.47
2022-08-03T03:10:45.136Z,99274.72
2022-08-03T03:11:50.784Z,99270.38
2022-08-03T03:12:58.280Z,99269.03
2022-08-03T03:14:01.042Z,99260.75
2022-08-03T03:15:06.432Z,99269.00
2022-08-03T03:16:09.950Z,99260.94
2022-08-03T03:17:12.467Z,99271.56
2022-08-03T03:18:20.198Z,99273.13
2022-08-03T03:19:25.860Z,99274.81
2022-08-03T03:20:30.170Z,99275.59
2022-08-03T03:21:33.872Z,99268.91
2022-08-03T03:22:37.584Z,99274.31
2022-08-03T03:23:43.470Z,99273.25
2022-08-03T03:24:47.858Z,99271.34
2022-08-03T03:25:51.816Z,99270.59
2022-08-03T03:26:54.378Z,99269.50
2022-08-03T03:27:57.100Z,99263.69
2022-08-03T03:29:01.890Z,99272.94
2022-08-03T03:30:04.718Z,99274.63
2022-08-03T03:31:07.993Z,99261.34
2022-08-03T03:32:10.565Z,99261.78
2022-08-03T03:33:13.106Z,99267.13
2022-08-03T03:34:15.634Z,99257.31
2022-08-03T03:35:18.969Z,99267.75
2022-08-03T03:36:21.208Z,99265.69
2022-08-03T03:37:23.520Z,99258.81
2022-08-03T03:38:26.069Z,99266.34
2022-08-03T03:39:28.407Z,99265.44
2022-08-03T03:40:30.695Z,99268.09
2022-08-03T03:41:33.711Z,99268.47
2022-08-03T03:42:38.302Z,99271.66
2022-08-03T03:43:40.627Z,99267.28
2022-08-03T03:44:42.928Z,99266.75
2022-08-03T03:45:47.364Z,99271.00
2022-08-03T03:46:49.696Z,99270.84
2022-08-03T03:47:52.056Z,99273.19
2022-08-03T03:48:54.499Z,99256.56
2022-08-03T03:49:57.816Z,99268.25
2022-08-03T03:51:01.100Z,99267.69
2022-08-03T03:52:03.480Z,99266.88
2022-08-03T03:53:09.263Z,99270.16
2022-08-03T03:54:11.610Z,99267.19
2022-08-03T03:55:18.128Z,99263.50
2022-08-03T03:56:21.384Z,99267.63
2022-08-03T03:57:23.707Z,99263.78
2022-08-03T03:58:26.219Z,99271.00
2022-08-03T03:59:28.482Z,99266.13
2022-08-03T04:00:31.223Z,99273.03
2022-08-03T04:01:33.636Z,99266.34
2022-08-03T04:02:36.197Z,99270.25
2022-08-03T04:03:38.549Z,99271.63
2022-08-03T04:04:59.693Z,99267.72
2022-08-03T04:06:20.898Z,99268.78
2022-08-03T04:07:43.649Z,99267.09
2022-08-03T04:09:04.775Z,99266.66
2022-08-03T04:10:32.667Z,99272.50
2022-08-03T04:11:40.740Z,99270.56
2022-08-03T04:12:50.554Z,99275.78
2022-08-03T04:14:01.742Z,99277.38
2022-08-03T04:15:06.404Z,99271.75
2022-08-03T04:16:12.318Z,99271.53
2022-08-03T04:17:15.648Z,99277.91
2022-08-03T04:18:19.708Z,99272.19
2022-08-03T04:19:30.859Z,99269.09
2022-08-03T04:20:37.454Z,99273.00
2022-08-03T04:21:43.389Z,99273.34
2022-08-03T04:22:49.677Z,99269.19
2022-08-03T04:23:55.887Z,99274.41
2022-08-03T04:25:03.147Z,99272.84
2022-08-03T04:26:09.900Z,99270.25
2022-08-03T04:27:15.637Z,99262.78
2022-08-03T04:28:31.214Z,99266.34
2022-08-03T04:29:36.215Z,99264.63
2022-08-03T04:30:47.572Z,99254.63
2022-08-03T04:31:52.380Z,99268.75
2022-08-03T04:32:57.482Z,99263.25
2022-08-03T04:33:59.849Z,99252.75
2022-08-03T04:35:02.715Z,99262.66
2022-08-03T04:36:08.741Z,99255.44
2022-08-03T04:37:14.700Z,99254.34
2022-08-03T04:38:19.265Z,99255.97
2022-08-03T04:39:26.725Z,99247.88
2022-08-03T04:40:35.238Z,99261.28
2022-08-03T04:42:06.913Z,99265.84
2022-08-03T04:43:02.954Z,99268.16
2022-08-03T04:44:07.202Z,99254.41
2022-08-03T04:45:12.906Z,99254.38
2022-08-03T04:46:15.586Z,99255.09
2022-08-03T04:47:18.109Z,99252.69
2022-08-03T04:48:21.125Z,99251.50
2022-08-03T04:49:24.590Z,99259.88
2022-08-03T04:50:28.123Z,99251.13
2022-08-03T04:51:40.536Z,99259.88
2022-08-03T04:52:43.067Z,99261.94
2022-08-03T04:53:45.542Z,99263.34
2022-08-03T04:54:50.842Z,99261.22
2022-08-03T04:55:53.517Z,99260.66
2022-08-03T04:56:55.857Z,99263.47
2022-08-03T04:57:59.084Z,99268.59
2022-08-03T04:59:01.691Z,99255.78
2022-08-03T05:00:05.665Z,99263.81
2022-08-03T05:01:08.088Z,99266.34
2022-08-03T05:02:10.549Z,99264.19
2022-08-03T05:03:23.935Z,99271.38
2022-08-03T05:04:27.465Z,99263.47
2022-08-03T05:05:48.629Z,99264.72
2022-08-03T05:06:54.127Z,99267.53
2022-08-03T05:07:57.577Z,99272.53
2022-08-03T05:09:04.240Z,99276.47
2022-08-03T05:10:14.833Z,99269.16
2022-08-03T05:11:18.976Z,99273.56
2022-08-03T05:12:21.376Z,99273.94
2022-08-03T05:13:23.848Z,99271.25
2022-08-03T05:14:28.177Z,99267.06
2022-08-03T05:15:30.765Z,99271.78
2022-08-03T05:16:33.102Z,99269.53
2022-08-03T05:17:35.409Z,99270.44
2022-08-03T05:18:37.959Z,99275.19
2022-08-03T05:19:40.331Z,99276.50
2022-08-03T05:20:42.650Z,99271.25
2022-08-03T05:21:52.431Z,99282.72
2022-08-03T05:22:55.304Z,99286.34
2022-08-03T05:23:57.699Z,99281.78
2022-08-03T05:25:01.768Z,99274.56
2022-08-03T05:26:04.145Z,99273.75
2022-08-03T05:27:06.507Z,99277.28
2022-08-03T05:28:08.899Z,99279.88
2022-08-03T05:29:11.268Z,99281.75
2022-08-03T05:30:31.684Z,99287.81
2022-08-03T05:31:36.158Z,99279.31
2022-08-03T05:32:38.440Z,99286.75
2022-08-03T05:33:41.061Z,99275.66
2022-08-03T05:34:44.041Z,99283.16
2022-08-03T05:36:01.347Z,99276.25
2022-08-03T05:37:07.308Z,99276.19
2022-08-03T05:38:10.275Z,99283.72
2022-08-03T05:39:12.939Z,99271.38
2022-08-03T05:40:15.214Z,99277.88
2022-08-03T05:41:21.247Z,99284.19
2022-08-03T05:42:26.200Z,99293.22
2022-08-03T05:43:31.946Z,99281.00
2022-08-03T05:44:34.403Z,99284.59
2022-08-03T05:45:37.127Z,99288.06
2022-08-03T05:46:39.453Z,99279.16
2022-08-03T05:47:44.227Z,99295.06
2022-08-03T05:48:46.672Z,99283.38
2022-08-03T05:49:48.880Z,99284.38
2022-08-03T05:50:51.094Z,99287.63
2022-08-03T05:51:59.935Z,99292.84
2022-08-03T05:53:14.253Z,99284.69
2022-08-03T05:54:17.899Z,99283.19
2022-08-03T05:55:20.251Z,99282.66
2022-08-03T05:56:26.736Z,99279.31
2022-08-03T05:57:28.975Z,99284.31
2022-08-03T05:58:31.216Z,99279.75
2022-08-03T05:59:38.836Z,99286.84
2022-08-03T06:00:41.147Z,99284.75
2022-08-03T06:01:43.469Z,99278.13
2022-08-03T06:02:45.874Z,99275.09
2022-08-03T06:03:49.503Z,99281.41
2022-08-03T06:04:51.891Z,99282.72
2022-08-03T06:06:00.469Z,99290.25
2022-08-03T06:07:03.465Z,99288.59
2022-08-03T06:08:05.762Z,99291.16
2022-08-03T06:09:08.004Z,99289.78
2022-08-03T06:10:35.258Z,99284.84
2022-08-03T06:11:32.825Z,99284.59
2022-08-03T06:12:41.054Z,99288.97
2022-08-03T06:13:43.999Z,99283.59
2022-08-03T06:14:46.446Z,99284.16
2022-08-03T06:15:48.838Z,99282.41
2022-08-03T06:16:51.158Z,99276.50
2022-08-03T06:17:53.570Z,99278.00
2022-08-03T06:18:55.929Z,99276.13
2022-08-03T06:19:58.463Z,99279.56
2022-08-03T06:21:14.391Z,99283.56
2022-08-03T06:22:18.781Z,99279.44
2022-08-03T06:23:21.359Z,99278.19
2022-08-03T06:24:25.119Z,99269.50
2022-08-03T06:25:27.631Z,99271.50
2022-08-03T06:26:30.085Z,99269.41
2022-08-03T06:27:37.024Z,99279.09
2022-08-03T06:28:52.357Z,99272.53
2022-08-03T06:29:56.154Z,99276.72
2022-08-03T06:30:58.786Z,99273.03
2022-08-03T06:32:01.209Z,99271.72
2022-08-03T06:33:03.652Z,99258.97
2022-08-03T06:34:32.989Z,99261.63
2022-08-03T06:35:33.394Z,99267.25
2022-08-03T06:36:37.638Z,99270.03
2022-08-03T06:37:47.399Z,99264.38
2022-08-03T06:38:49.712Z,99268.06
2022-08-03T06:39:52.081Z,99264.38
2022-08-03T06:40:54.427Z,99265.47
2022-08-03T06:41:56.751Z,99263.06
2022-08-03T06:43:00.201Z,99266.03
2022-08-03T06:44:04.507Z,99252.78
2022-08-03T06:45:08.999Z,99264.47
2022-08-03T06:46:11.490Z,99251.00
2022-08-03T06:47:13.844Z,99259.13
2022-08-03T06:48:16.326Z,99264.00
2022-08-03T06:49:19.008Z,99263.78
2022-08-03T06:50:26.029Z,99265.25
2022-08-03T06:52:04.441Z,99269.44
2022-08-03T06:52:51.747Z,99273.66
2022-08-03T06:53:54.138Z,99270.41
2022-08-03T06:54:56.460Z,99266.56
2022-08-03T06:55:58.894Z,99272.25
2022-08-03T06:57:01.316Z,99273.78
2022-08-03T06:58:03.834Z,99271.09
2022-08-03T06:59:06.240Z,99270.50
2022-08-03T07:00:12.460Z,99271.16
2022-08-03T07:01:15.476Z,99259.66
2022-08-03T07:02:21.766Z,99274.28
2022-08-03T07:03:24.613Z,99272.06
2022-08-03T07:04:27.067Z,99271.41
2022-08-03T07:05:30.634Z,99276.69
2022-08-03T07:06:33.265Z,99274.84
2022-08-03T07:07:35.869Z,99271.72
2022-08-03T07:08:38.457Z,99279.06
2022-08-03T07:09:40.824Z,99276.72
2022-08-03T07:10:45.548Z,99269.63
2022-08-03T07:11:47.977Z,99281.47
2022-08-03T07:12:56.280Z,99278.78
2022-08-03T07:13:59.576Z,99277.44
2022-08-03T07:15:03.453Z,99290.22
2022-08-03T07:16:07.254Z,99281.00
2022-08-03T07:17:11.762Z,99288.69
2022-08-03T07:18:14.549Z,99280.38
2022-08-03T07:19:17.094Z,99280.78
2022-08-03T07:20:19.619Z,99278.38
2022-08-03T07:21:22.009Z,99277.41
2022-08-03T07:22:24.355Z,99282.31
2022-08-03T07:23:27.164Z,99277.72
2022-08-03T07:24:30.047Z,99284.81
2022-08-03T07:25:32.918Z,99275.38
2022-08-03T07:26:35.669Z,99279.53
2022-08-03T07:27:38.506Z,99274.72
2022-08-03T07:28:41.143Z,99273.38
2022-08-03T07:29:43.840Z,99280.44
2022-08-03T07:30:46.794Z,99275.06
2022-08-03T07:31:49.531Z,99274.41
2022-08-03T07:32:51.900Z,99274.69
2022-08-03T07:33:54.261Z,99269.47
2022-08-03T07:35:00.549Z,99273.03
2022-08-03T07:36:03.600Z,99286.69
2022-08-03T07:37:05.997Z,99282.13
2022-08-03T07:38:08.314Z,99276.06
2022-08-03T07:39:17.556Z,99274.69
2022-08-03T07:40:20.524Z,99277.41
2022-08-03T07:41:22.876Z,99275.22
2022-08-03T07:42:25.767Z,99280.94
2022-08-03T07:43:28.095Z,99275.75
2022-08-03T07:44:30.498Z,99273.53
2022-08-03T07:45:33.027Z,99281.09
2022-08-03T07:46:35.412Z,99272.38
2022-08-03T07:47:37.829Z,99277.19
2022-08-03T07:48:40.106Z,99274.00
2022-08-03T07:49:42.543Z,99275.78
2022-08-03T07:50:45.109Z,99277.16
2022-08-03T07:52:07.389Z,99277.22
2022-08-03T07:53:09.799Z,99283.16
2022-08-03T07:54:12.223Z,99282.13
2022-08-03T07:55:16.379Z,99279.38
2022-08-03T07:56:19.619Z,99278.75
2022-08-03T07:57:21.950Z,99271.50
2022-08-03T07:58:24.676Z,99279.59
2022-08-03T07:59:26.997Z,99279.97
2022-08-03T08:00:29.722Z,99285.44
2022-08-03T08:01:34.131Z,99276.66
2022-08-03T08:02:36.525Z,99272.03
2022-08-03T08:03:52.935Z,99275.50
2022-08-03T08:04:56.015Z,99278.00
2022-08-03T08:05:58.560Z,99274.66
2022-08-03T08:07:01.158Z,99274.56
2022-08-03T08:08:04.088Z,99270.72
2022-08-03T08:09:06.621Z,99269.59
2022-08-03T08:10:10.464Z,99265.28
2022-08-03T08:11:13.034Z,99266.03
2022-08-03T08:12:16.090Z,99272.97
2022-08-03T08:13:18.787Z,99264.34
2022-08-03T08:14:21.251Z,99268.94
2022-08-03T08:15:23.722Z,99258.03
2022-08-03T08:16:26.070Z,99258.59
2022-08-03T08:17:28.470Z,99264.03
2022-08-03T08:18:31.696Z,99258.34
2022-08-03T08:19:36.800Z,99251.91
2022-08-03T08:20:43.827Z,99258.72
2022-08-03T08:21:54.054Z,99263.56
2022-08-03T08:23:19.288Z,99259.59
2022-08-03T08:24:33.971Z,99251.84
2022-08-03T08:25:37.194Z,99256.09
2022-08-03T08:26:39.635Z,99251.38
2022-08-03T08:28:31.174Z,99253.22
2022-08-03T08:29:09.159Z,99262.88
2022-08-03T08:30:15.999Z,99264.13
2022-08-03T08:31:21.247Z,99256.38
2022-08-03T08:32:23.622Z,99259.72
2022-08-03T08:33:33.211Z,99256.16
2022-08-03T08:34:45.083Z,99261.28
2022-08-03T08:35:47.846Z,99260.91
2022-08-03T08:36:50.610Z,99257.59
2022-08-03T08:37:53.392Z,99265.06
2022-08-03T08:38:56.450Z,99253.75
2022-08-03T08:39:59.460Z,99260.34
2022-08-03T08:41:02.098Z,99257.69
2022-08-03T08:42:05.131Z,99262.75
2022-08-03T08:43:07.845Z,99255.38
2022-08-03T08:44:10.503Z,99257.69
2022-08-03T08:45:15.584Z,99254.31
2022-08-03T08:46:23.249Z,99252.06
2022-08-03T08:47:30.801Z,99256.19
2022-08-03T08:48:54.722Z,99259.94
2022-08-03T08:50:09.764Z,99254.34
2022-08-03T08:51:14.125Z,99262.78
2022-08-03T08:52:24.983Z,99249.81
2022-08-03T08:53:29.486Z,99252.97
2022-08-03T08:54:33.489Z,99247.31
2022-08-03T08:55:58.595Z,99245.78
2022-08-03T08:57:09.109Z,99251.28
2022-08-03T08:58:21.877Z,99254.88
2022-08-03T08:59:25.562Z,99250.22
2022-08-03T09:00:28.094Z,99243.81
2022-08-03T09:01:30.646Z,99246.00
2022-08-03T09:02:33.187Z,99244.69
2022-08-03T09:03:36.045Z,99249.91
2022-08-03T09:04:39.901Z,99238.25
2022-08-03T09:05:55.919Z,99246.63
2022-08-03T09:07:18.750Z,99238.13
2022-08-03T09:08:23.153Z,99240.91
2022-08-03T09:10:08.397Z,99241.31
2022-08-03T09:10:48.120Z,99239.94
2022-08-03T09:11:51.763Z,99242.53
2022-08-03T09:13:08.212Z,99243.13
2022-08-03T09:14:35.228Z,99246.78
2022-08-03T09:15:34.281Z,99246.69
2022-08-03T09:16:36.749Z,99254.44
2022-08-03T09:17:40.645Z,99237.28
2022-08-03T09:18:46.099Z,99243.88
2022-08-03T09:20:10.805Z,99237.47
2022-08-03T09:21:31.579Z,99243.72
2022-08-03T09:22:35.141Z,99234.31
2022-08-03T09:24:02.441Z,99235.97
2022-08-03T09:25:27.217Z,99239.75
2022-08-03T09:26:31.648Z,99238.31
2022-08-03T09:27:44.881Z,99233.06
2022-08-03T09:29:00.688Z,99236.97
2022-08-03T09:30:33.837Z,99239.41
2022-08-03T09:31:39.739Z,99237.09
2022-08-03T09:32:47.275Z,99239.88
2022-08-03T09:33:49.670Z,99232.00
2022-08-03T09:34:57.829Z,99239.66
2022-08-03T09:36:00.483Z,99237.38
2022-08-03T09:37:12.526Z,99225.78
2022-08-03T09:38:27.258Z,99222.56
2022-08-03T09:39:42.200Z,99224.28
2022-08-03T09:40:46.086Z,99226.34
2022-08-03T09:42:07.347Z,99221.50
2022-08-03T09:43:10.586Z,99230.78
2022-08-03T09:44:24.143Z,99225.13
2022-08-03T09:45:29.918Z,99228.41
2022-08-03T09:46:33.246Z,99228.50
2022-08-03T09:47:44.994Z,99228.66
2022-08-03T09:48:47.566Z,99227.06
2022-08-03T09:50:04.677Z,99216.94
2022-08-03T09:51:14.490Z,99221.91
2022-08-03T09:52:48.324Z,99214.47
2022-08-03T09:54:00.268Z,99207.78
2022-08-03T09:55:23.532Z,99212.75
2022-08-03T09:56:45.031Z,99219.69
2022-08-03T09:57:47.347Z,99223.81
2022-08-03T09:58:51.122Z,99216.03
2022-08-03T10:00:08.157Z,99220.63
2022-08-03T10:01:25.298Z,99213.28
2022-08-03T10:02:28.002Z,99217.00
2022-08-03T10:03:33.338Z,99212.59
2022-08-03T10:04:47.240Z,99221.63
2022-08-03T10:05:49.505Z,99218.88
2022-08-03T10:07:04.072Z,99217.84
2022-08-03T10:08:15.168Z,99221.84
2022-08-03T10:09:17.550Z,99220.44
2022-08-03T10:10:31.382Z,99209.88
2022-08-03T10:11:40.898Z,99215.78
2022-08-03T10:12:45.037Z,99215.97
2022-08-03T10:13:48.454Z,99212.63
2022-08-03T10:14:52.318Z,99213.25
2022-08-03T10:16:22.023Z,99212.19
2022-08-03T10:17:17.196Z,99209.69
2022-08-03T10:18:19.701Z,99200.53
2022-08-03T10:19:22.297Z,99204.22
2022-08-03T10:20:25.347Z,99198.00
2022-08-03T10:21:33.795Z,99204.63
2022-08-03T10:22:39.716Z,99199.50
2022-08-03T10:23:42.503Z,99186.22
2022-08-03T10:24:53.187Z,99188.44
2022-08-03T10:26:03.338Z,99193.47
2022-08-03T10:27:11.389Z,99195.66
2022-08-03T10:28:16.719Z,99200.66
2022-08-03T10:29:25.055Z,99197.34
2022-08-03T10:30:28.786Z,99196.28
2022-08-03T10:31:38.488Z,99198.59
2022-08-03T10:33:03.495Z,99196.50
2022-08-03T10:34:14.970Z,99188.69
2022-08-03T10:35:21.593Z,99195.56
2022-08-03T10:36:27.373Z,99189.03
2022-08-03T10:37:32.374Z,99191.19
2022-08-03T10:38:47.005Z,99186.91
2022-08-03T10:39:53.790Z,99185.66
2022-08-03T10:40:59.037Z,99177.97
2022-08-03T10:42:03.243Z,99176.41
2022-08-03T10:43:20.839Z,99175.19
2022-08-03T10:44:25.974Z,99175.47
2022-08-03T10:45:28.293Z,99164.38
2022-08-03T10:46:31.396Z,99179.72
2022-08-03T10:47:34.695Z,99179.25
2022-08-03T10:48:38.096Z,99166.84
2022-08-03T10:49:41.540Z,99172.03
2022-08-03T10:50:46.568Z,99166.09
2022-08-03T10:51:52.747Z,99170.06
2022-08-03T10:53:07.341Z,99165.47
2022-08-03T10:54:57.777Z,99177.66
2022-08-03T10:56:35.358Z,99169.19
2022-08-03T10:57:58.429Z,99174.94
2022-08-03T10:59:03.818Z,99164.63
2022-08-03T11:00:07.500Z,99171.09
2022-08-03T11:01:12.029Z,99176.72
2022-08-03T11:02:15.449Z,99174.09
2022-08-03T11:03:18.510Z,99177.22
2022-08-03T11:04:22.055Z,99167.41
2022-08-03T11:05:28.926Z,99173.03
2022-08-03T11:06:37.262Z,99165.31
2022-08-03T11:07:40.072Z,99160.63
2022-08-03T11:08:42.441Z,99162.09
2022-08-03T11:09:49.301Z,99157.44
2022-08-03T11:10:55.103Z,99148.94
2022-08-03T11:11:57.532Z,99150.16
2022-08-03T11:13:10.950Z,99150.75
2022-08-03T11:14:21.610Z,99155.78
2022-08-03T11:15:34.478Z,99152.34
2022-08-03T11:16:47.990Z,99145.63
2022-08-03T11:18:11.220Z,99152.81
2022-08-03T11:19:17.157Z,99150.91
2022-08-03T11:20:46.797Z,99150.22
2022-08-03T11:21:51.570Z,99147.41
2022-08-03T11:22:54.869Z,99148.19
2022-08-03T11:24:05.524Z,99141.59
2022-08-03T11:25:08.867Z,99141.78
2022-08-03T11:26:31.168Z,99142.00
2022-08-03T11:27:34.087Z,99156.69
2022-08-03T11:28:38.916Z,99162.25
2022-08-03T11:30:18.636Z,99153.59
2022-08-03T11:31:47.215Z,99142.91
2022-08-03T11:32:49.097Z,99142.16
2022-08-03T11:34:08.551Z,99148.44
2022-08-03T11:35:12.236Z,99146.81
2022-08-03T11:36:16.424Z,99139.09
2022-08-03T11:37:34.571Z,99135.09
2022-08-03T11:39:18.033Z,99134.44
2022-08-03T11:40:50.350Z,99135.66
2022-08-03T11:41:52.683Z,99141.41
2022-08-03T11:42:54.992Z,99149.19
2022-08-03T11:43:57.301Z,99149.00
2022-08-03T11:45:00.660Z,99149.22
2022-08-03T11:46:07.994Z,99145.34
2022-08-03T11:47:17.503Z,99147.53
2022-08-03T11:48:20.687Z,99147.00
2022-08-03T11:49:24.143Z,99141.91
2022-08-03T11:50:26.579Z,99137.28
2022-08-03T11:51:32.061Z,99148.72
2022-08-03T11:52:37.341Z,99142.88
2022-08-03T11:53:41.904Z,99136.41
2022-08-03T11:54:44.556Z,99149.53
2022-08-03T11:55:50.940Z,99138.38
2022-08-03T11:56:53.256Z,99135.19
2022-08-03T11:59:16.813Z,99142.78
2022-08-03T11:59:32.868Z,99134.94
2022-08-03T12:00:35.347Z,99128.13
2022-08-03T12:01:38.928Z,99125.34
2022-08-03T12:02:57.752Z,99115.09
2022-08-03T12:04:04.740Z,99123.91
2022-08-03T12:05:10.027Z,99119.75
2022-08-03T12:06:14.586Z,99117.28
2022-08-03T12:07:25.016Z,99124.66
2022-08-03T12:08:41.853Z,99119.97
2022-08-03T12:10:05.970Z,99114.41
2022-08-03T12:11:10.544Z,99117.03
2022-08-03T12:12:16.437Z,99120.56
2022-08-03T12:14:27.419Z,99107.78
2022-08-03T12:14:49.771Z,99114.16
2022-08-03T12:15:57.371Z,99113.69
2022-08-03T12:16:59.701Z,99115.88
2022-08-03T12:18:04.005Z,99111.97
2022-08-03T12:19:06.959Z,99111.50
2022-08-03T12:20:20.581Z,99111.66
2022-08-03T12:21:56.705Z,99099.50
2022-08-03T12:23:06.980Z,99113.69
2022-08-03T12:24:09.494Z,99111.56
2022-08-03T12:25:38.847Z,99108.78
2022-08-03T12:26:46.336Z,99105.91
2022-08-03T12:28:36.462Z,99105.38
2022-08-03T12:29:38.507Z,99102.97
2022-08-03T12:30:40.869Z,99105.09
2022-08-03T12:31:43.155Z,99114.22
2022-08-03T12:32:46.063Z,99111.84
2022-08-03T12:33:55.003Z,99108.13
2022-08-03T12:35:01.000Z,99110.69
2022-08-03T12:36:09.405Z,99108.16
2022-08-03T12:37:19.027Z,99102.72
2022-08-03T12:38:25.169Z,99104.06
2022-08-03T12:39:30.986Z,99103.28
2022-08-03T12:40:33.798Z,99100.72
2022-08-03T12:41:41.338Z,99095.44
2022-08-03T12:42:43.603Z,99104.06
2022-08-03T12:43:49.903Z,99111.97
2022-08-03T12:44:56.369Z,99103.28
2022-08-03T12:46:13.645Z,99089.44
2022-08-03T12:47:16.005Z,99099.38
2022-08-03T12:48:18.329Z,99097.88
2022-08-03T12:49:26.563Z,99090.78
2022-08-03T12:50:33.741Z,99090.13
2022-08-03T12:51:55.164Z,99085.13
2022-08-03T12:52:59.200Z,99091.72
2022-08-03T12:54:03.082Z,99089.00
2022-08-03T12:55:05.739Z,99088.56
2022-08-03T12:56:08.047Z,99083.69
2022-08-03T12:57:15.986Z,99086.03
2022-08-03T12:58:33.452Z,99091.06
2022-08-03T12:59:42.440Z,99086.91
2022-08-03T13:00:56.011Z,99083.22
2022-08-03T13:01:59.555Z,99081.00
2022-08-03T13:04:34.783Z,99092.47
2022-08-03T13:05:46.580Z,99082.22
2022-08-03T13:07:06.609Z,99082.84
2022-08-03T13:08:21.430Z,99087.94
2022-08-03T13:09:26.181Z,99093.06
2022-08-03T13:10:31.068Z,99080.34